Time;durP1;ratioP1;P1;durP2;ratioP2;P2;SDS_P1;SDS_P2;PMS_P1;PMS_P2;Temp;Humidity;BMP_temperature;BMP_pressure;BME280_temperature;BME280_humidity;BME280_pressure;Samples;Min_cycle;Max_cycle;Signal;HPM_P1;HPM_P2
2022/03/22 00:00:06;;;;;;;346.47;93.73;;;;;;;6.26;40.60;101082.47;343410;28;2483;-69
2022/03/22 00:00:16;;;;;;;346.40;92.93;;;;;;;6.29;40.53;101079.00;343843;28;1107;-69
2022/03/22 00:00:27;;;;;;;346.30;93.53;;;;;;;6.31;40.53;101091.16;342582;28;1472;-69
2022/03/22 00:00:37;;;;;;;347.45;94.82;;;;;;;6.30;40.93;101073.81;341817;28;1075;-69
2022/03/22 00:00:48;;;;;;;348.50;94.70;;;;;;;6.31;40.70;101080.75;338504;29;1318;-69
2022/03/22 00:00:59;;;;;;;349.58;94.45;;;;;;;6.32;40.71;101072.09;338706;29;1034;-69
2022/03/22 00:01:10;;;;;;;350.20;94.25;;;;;;;6.32;40.28;101077.28;339244;29;1102;-68
2022/03/22 00:01:25;;;;;;;350.23;95.53;;;;;;;6.36;40.49;101082.47;340956;28;2079;-68
2022/03/22 00:01:36;;;;;;;351.84;97.60;;;;;;;6.31;40.28;101080.75;341103;29;1694;-68
2022/03/22 00:01:50;;;;;;;351.93;97.27;;;;;;;6.28;40.34;101080.75;342615;28;873;-68
2022/03/22 00:02:01;;;;;;;348.95;96.78;;;;;;;6.29;40.44;101079.88;341039;28;1076;-68
2022/03/22 00:02:11;;;;;;;348.55;96.00;;;;;;;6.30;40.41;101079.00;341290;29;1213;-68
2022/03/22 00:02:23;;;;;;;348.73;96.00;;;;;;;6.32;40.36;101085.06;341271;29;984;-68
2022/03/22 00:02:34;;;;;;;349.65;95.55;;;;;;;6.31;40.61;101080.75;341278;29;960;-68
2022/03/22 00:02:44;;;;;;;348.07;93.23;;;;;;;6.33;40.69;101083.34;342569;28;882;-68
2022/03/22 00:02:55;;;;;;;347.33;91.88;;;;;;;6.32;40.55;101076.41;343835;28;1251;-68
2022/03/22 00:03:05;;;;;;;347.15;93.07;;;;;;;6.34;40.32;101085.94;343925;28;999;-68
2022/03/22 00:03:16;;;;;;;346.40;93.63;;;;;;;6.33;40.53;101078.16;343807;28;1907;-69
2022/03/22 00:03:26;;;;;;;345.73;92.65;;;;;;;6.34;40.49;101079.88;343773;28;2269;-68
2022/03/22 00:03:37;;;;;;;345.40;93.50;;;;;;;6.33;40.21;101073.81;346734;28;833;-68
2022/03/22 00:03:47;;;;;;;348.08;94.78;;;;;;;6.36;40.95;101079.88;346662;28;1210;-68
2022/03/22 00:04:02;;;;;;;348.60;94.35;;;;;;;6.37;40.55;101079.00;343861;28;932;-68
2022/03/22 00:04:12;;;;;;;349.17;93.57;;;;;;;6.37;40.61;101079.00;341307;29;882;-68
2022/03/22 00:04:22;;;;;;;347.67;94.37;;;;;;;6.34;40.21;101078.16;341149;28;1175;-68
2022/03/22 00:04:33;;;;;;;347.50;94.72;;;;;;;6.37;40.44;101079.00;342665;28;1269;-69
2022/03/22 00:04:43;;;;;;;348.70;95.67;;;;;;;6.37;40.62;101079.00;342495;28;1301;-69
2022/03/22 00:04:54;;;;;;;350.02;97.47;;;;;;;6.37;40.22;101079.88;342652;28;1831;-69
2022/03/22 00:05:04;;;;;;;350.30;98.83;;;;;;;6.36;40.43;101072.09;342222;28;1144;-69
2022/03/22 00:05:15;;;;;;;350.58;99.70;;;;;;;6.32;40.13;101077.28;341239;29;1064;-67
2022/03/22 00:05:26;;;;;;;350.45;97.78;;;;;;;6.30;40.44;101073.81;341131;29;1997;-67
2022/03/22 00:05:40;;;;;;;347.33;95.07;;;;;;;6.32;40.07;101077.28;341264;29;975;-67
2022/03/22 00:05:54;;;;;;;345.10;92.95;;;;;;;6.31;40.37;101080.75;342530;28;977;-68
2022/03/22 00:06:05;;;;;;;346.27;94.65;;;;;;;6.32;40.51;101076.41;341220;29;846;-68
2022/03/22 00:06:15;;;;;;;347.65;95.65;;;;;;;6.32;40.54;101077.28;342521;28;1216;-68
2022/03/22 00:06:26;;;;;;;348.70;95.27;;;;;;;6.33;40.47;101079.00;341243;29;1256;-68
2022/03/22 00:06:36;;;;;;;346.63;94.38;;;;;;;6.36;40.42;101077.28;342348;28;2121;-68
2022/03/22 00:06:46;;;;;;;346.87;94.50;;;;;;;6.34;40.15;101080.75;341306;29;940;-68
2022/03/22 00:06:57;;;;;;;348.10;94.65;;;;;;;6.34;40.21;101074.69;342390;28;1280;-69
2022/03/22 00:07:08;;;;;;;350.73;95.60;;;;;;;6.33;40.46;101072.94;341177;29;929;-68
2022/03/22 00:07:18;;;;;;;350.75;95.53;;;;;;;6.33;40.23;101068.63;342298;28;2272;-69
2022/03/22 00:07:30;;;;;;;348.27;94.97;;;;;;;6.30;40.25;101078.16;345242;28;840;-69
2022/03/22 00:07:40;;;;;;;349.48;95.60;;;;;;;6.26;40.32;101077.28;345075;28;912;-68
2022/03/22 00:07:51;;;;;;;348.27;94.37;;;;;;;6.23;40.38;101072.06;343914;28;943;-68
2022/03/22 00:08:03;;;;;;;349.55;94.15;;;;;;;6.24;40.54;101084.22;341153;29;941;-68
2022/03/22 00:08:13;;;;;;;349.33;94.75;;;;;;;6.26;40.10;101072.06;339802;29;1924;-68
2022/03/22 00:08:24;;;;;;;351.33;96.80;;;;;;;6.27;39.94;101075.53;342523;28;1014;-68
2022/03/22 00:08:34;;;;;;;350.88;96.43;;;;;;;6.28;40.21;101074.69;342631;28;917;-68
2022/03/22 00:08:45;;;;;;;351.00;97.20;;;;;;;6.29;40.33;101077.28;345210;28;1291;-68
2022/03/22 00:08:55;;;;;;;351.77;97.28;;;;;;;6.26;40.32;101079.88;342470;28;1305;-68
2022/03/22 00:09:06;;;;;;;350.77;96.63;;;;;;;6.27;40.17;101070.34;342525;28;1520;-69
2022/03/22 00:09:16;;;;;;;350.95;95.82;;;;;;;6.29;39.91;101072.09;343987;28;979;-69
2022/03/22 00:09:26;;;;;;;351.00;95.33;;;;;;;6.29;39.92;101076.41;342601;28;956;-69
2022/03/22 00:09:37;;;;;;;351.25;95.20;;;;;;;6.28;39.92;101082.47;343719;28;1743;-67
2022/03/22 00:09:47;;;;;;;350.07;93.77;;;;;;;6.29;39.80;101081.63;342199;28;1568;-67
2022/03/22 00:09:58;;;;;;;348.15;94.65;;;;;;;6.30;39.93;101073.81;342391;28;1898;-67
2022/03/22 00:10:09;;;;;;;350.83;97.03;;;;;;;6.31;39.83;101070.34;342480;28;1346;-67
2022/03/22 00:10:19;;;;;;;350.98;97.65;;;;;;;6.31;40.10;101075.53;342646;28;968;-67
2022/03/22 00:10:30;;;;;;;350.60;97.37;;;;;;;6.30;40.28;101079.00;342195;28;2214;-68
2022/03/22 00:10:40;;;;;;;348.10;96.38;;;;;;;6.31;39.93;101075.53;343779;28;1992;-68
2022/03/22 00:10:51;;;;;;;348.70;95.93;;;;;;;6.31;39.98;101075.53;342609;28;1256;-68
2022/03/22 00:11:01;;;;;;;348.75;95.07;;;;;;;6.36;40.21;101079.88;341375;28;2286;-68
2022/03/22 00:11:12;;;;;;;349.77;95.80;;;;;;;6.37;40.13;101079.00;342567;28;892;-68
2022/03/22 00:11:22;;;;;;;350.50;98.00;;;;;;;6.36;39.55;101079.88;342570;28;964;-68
2022/03/22 00:11:33;;;;;;;349.77;98.22;;;;;;;6.38;39.74;101076.41;340925;28;2044;-68
2022/03/22 00:11:43;;;;;;;349.07;97.27;;;;;;;6.38;39.82;101071.22;343926;28;977;-68
2022/03/22 00:11:54;;;;;;;347.80;95.22;;;;;;;6.40;39.90;101079.88;342497;28;1217;-68
2022/03/22 00:12:05;;;;;;;347.33;93.63;;;;;;;6.42;39.93;101077.28;342527;28;1257;-68
2022/03/22 00:12:16;;;;;;;345.92;92.63;;;;;;;6.41;40.15;101071.22;340644;29;1725;-68
2022/03/22 00:12:26;;;;;;;348.83;93.53;;;;;;;6.43;40.02;101068.63;342575;28;957;-68
2022/03/22 00:12:37;;;;;;;349.70;95.75;;;;;;;6.41;40.00;101071.22;343911;28;856;-68
2022/03/22 00:12:49;;;;;;;349.37;95.10;;;;;;;6.38;40.22;101071.22;343937;28;876;-68
2022/03/22 00:12:59;;;;;;;349.65;95.07;;;;;;;6.38;39.86;101075.53;342605;28;940;-68
2022/03/22 00:13:10;;;;;;;349.80;95.53;;;;;;;6.38;40.10;101067.75;345945;28;1522;-68
2022/03/22 00:13:20;;;;;;;349.83;95.63;;;;;;;6.39;39.68;101072.09;342377;28;1573;-68
2022/03/22 00:13:31;;;;;;;347.67;94.30;;;;;;;6.40;39.62;101079.88;343605;28;2149;-69
2022/03/22 00:13:43;;;;;;;350.08;93.55;;;;;;;6.41;39.82;101067.75;342630;28;989;-70
2022/03/22 00:13:54;;;;;;;351.77;96.38;;;;;;;6.42;39.64;101066.88;341032;28;1748;-69
2022/03/22 00:14:08;;;;;;;350.58;95.15;;;;;;;6.42;39.94;101077.28;339932;29;984;-69
2022/03/22 00:14:18;;;;;;;347.48;93.53;;;;;;;6.43;39.90;101074.69;339887;29;945;-69
2022/03/22 00:14:29;;;;;;;347.50;93.50;;;;;;;6.41;40.02;101071.22;340800;28;2127;-69
2022/03/22 00:14:40;;;;;;;347.40;92.53;;;;;;;6.41;39.63;101070.34;341133;28;1682;-69
2022/03/22 00:14:50;;;;;;;348.10;93.30;;;;;;;6.42;39.78;101072.94;341199;29;1787;-69
2022/03/22 00:15:04;;;;;;;350.50;95.75;;;;;;;6.40;39.56;101074.69;345095;28;1967;-69
2022/03/22 00:15:15;;;;;;;351.58;100.18;;;;;;;6.36;39.86;101075.53;343772;28;911;-69
2022/03/22 00:15:25;;;;;;;349.67;98.90;;;;;;;6.36;40.00;101077.28;343919;28;993;-69
2022/03/22 00:15:36;;;;;;;346.50;94.10;;;;;;;6.37;39.76;101073.81;343983;28;1055;-69
2022/03/22 00:15:46;;;;;;;344.83;92.50;;;;;;;6.37;39.88;101073.81;341168;28;1315;-69
2022/03/22 00:15:57;;;;;;;343.47;91.07;;;;;;;6.37;39.46;101064.28;342468;28;954;-69
2022/03/22 00:16:07;;;;;;;343.75;92.22;;;;;;;6.39;39.50;101069.47;342519;28;1453;-69
2022/03/22 00:16:18;;;;;;;346.33;92.50;;;;;;;6.40;39.74;101072.09;342554;28;1213;-69
2022/03/22 00:16:29;;;;;;;347.80;93.83;;;;;;;6.40;39.94;101074.69;343821;28;1917;-69
2022/03/22 00:16:39;;;;;;;348.52;92.47;;;;;;;6.38;40.21;101070.34;341092;28;1411;-69
2022/03/22 00:16:49;;;;;;;349.67;94.70;;;;;;;6.41;39.95;101080.75;343972;28;1342;-69
2022/03/22 00:17:00;;;;;;;348.25;93.63;;;;;;;6.42;40.36;101066.88;341745;28;1973;-69
2022/03/22 00:17:10;;;;;;;348.83;94.93;;;;;;;6.44;40.00;101070.34;343877;28;2096;-69
2022/03/22 00:17:21;;;;;;;346.23;93.05;;;;;;;6.47;39.98;101068.63;343808;28;1317;-69
2022/03/22 00:17:32;;;;;;;347.25;93.13;;;;;;;6.45;39.96;101067.75;345087;28;1351;-69
2022/03/22 00:17:42;;;;;;;346.97;93.50;;;;;;;6.47;39.93;101072.94;343986;28;1697;-69
2022/03/22 00:17:52;;;;;;;347.73;94.88;;;;;;;6.48;39.83;101061.69;341193;29;819;-69
2022/03/22 00:18:03;;;;;;;347.40;98.00;;;;;;;6.49;40.06;101071.22;342433;28;1370;-69
2022/03/22 00:18:13;;;;;;;348.40;100.10;;;;;;;6.48;39.50;101070.34;344642;28;1474;-69
2022/03/22 00:18:24;;;;;;;349.83;99.30;;;;;;;6.44;40.04;101070.34;345118;28;1164;-69
2022/03/22 00:18:37;;;;;;;351.17;99.53;;;;;;;6.43;39.74;101073.81;342565;28;1174;-69
2022/03/22 00:18:48;;;;;;;347.67;97.25;;;;;;;6.40;39.82;101068.63;342403;28;1458;-69
2022/03/22 00:18:58;;;;;;;346.63;95.80;;;;;;;6.40;39.88;101066.88;342621;28;1607;-69
2022/03/22 00:19:09;;;;;;;345.75;94.63;;;;;;;6.42;39.81;101064.28;343690;28;2061;-69
2022/03/22 00:19:20;;;;;;;345.73;93.83;;;;;;;6.42;39.82;101067.75;343334;28;2070;-69
2022/03/22 00:19:30;;;;;;;346.35;93.03;;;;;;;6.42;39.86;101067.75;342490;28;1093;-69
2022/03/22 00:19:40;;;;;;;346.25;93.35;;;;;;;6.42;39.47;101069.47;342554;28;933;-69
2022/03/22 00:19:51;;;;;;;346.40;93.77;;;;;;;6.41;39.54;101067.75;339675;29;1723;-69
2022/03/22 00:20:01;;;;;;;345.98;93.35;;;;;;;6.42;39.93;101065.16;341186;28;2217;-69
2022/03/22 00:20:12;;;;;;;346.23;93.00;;;;;;;6.39;40.09;101065.16;343778;28;1196;-69
2022/03/22 00:20:23;;;;;;;346.50;93.20;;;;;;;6.36;39.97;101072.09;344481;28;1362;-69
2022/03/22 00:20:34;;;;;;;346.80;92.93;;;;;;;6.34;40.00;101070.34;345240;28;1284;-69
2022/03/22 00:20:45;;;;;;;346.00;93.62;;;;;;;6.34;40.27;101065.16;341314;29;886;-69
2022/03/22 00:20:56;;;;;;;347.13;93.33;;;;;;;6.34;40.12;101059.94;342433;28;1200;-69
2022/03/22 00:21:07;;;;;;;347.73;94.57;;;;;;;6.37;39.96;101068.63;345090;28;1706;-69
2022/03/22 00:21:19;;;;;;;349.07;96.73;;;;;;;6.37;40.03;101063.41;347949;28;1382;-69
2022/03/22 00:21:30;;;;;;;353.02;98.35;;;;;;;6.39;39.92;101061.69;346722;28;1632;-69
2022/03/22 00:21:40;;;;;;;353.43;97.00;;;;;;;6.40;39.94;101063.41;345099;28;1212;-69
2022/03/22 00:21:50;;;;;;;350.65;92.95;;;;;;;6.41;39.94;101067.75;342594;28;1233;-69
2022/03/22 00:22:02;;;;;;;346.90;92.80;;;;;;;6.42;39.88;101072.94;343882;28;1247;-69
2022/03/22 00:22:14;;;;;;;348.85;94.07;;;;;;;6.44;40.09;101067.75;342582;28;869;-69
2022/03/22 00:22:25;;;;;;;348.70;95.57;;;;;;;6.44;40.34;101058.22;342833;28;2004;-69
2022/03/22 00:22:35;;;;;;;347.87;95.03;;;;;;;6.44;40.18;101065.16;338552;29;993;-69
2022/03/22 00:22:45;;;;;;;347.20;95.35;;;;;;;6.44;40.03;101060.81;341881;28;1440;-69
2022/03/22 00:22:57;;;;;;;348.07;95.67;;;;;;;6.43;40.11;101063.41;342644;28;823;-69
2022/03/22 00:23:07;;;;;;;348.13;96.75;;;;;;;6.43;39.97;101064.28;342514;28;1922;-69
2022/03/22 00:23:19;;;;;;;349.00;97.33;;;;;;;6.44;40.35;101059.94;341155;29;1005;-69
2022/03/22 00:23:29;;;;;;;351.35;97.25;;;;;;;6.44;40.41;101060.81;340014;29;977;-69
2022/03/22 00:23:39;;;;;;;351.23;97.33;;;;;;;6.44;40.14;101059.94;342047;28;1952;-69
2022/03/22 00:23:50;;;;;;;350.40;95.55;;;;;;;6.45;40.17;101061.69;342384;28;1359;-69
2022/03/22 00:24:01;;;;;;;347.80;95.67;;;;;;;6.44;40.13;101062.56;345326;28;2216;-69
2022/03/22 00:24:11;;;;;;;350.02;96.66;;;;;;;6.43;40.08;101066.03;343355;28;1583;-69
2022/03/22 00:24:22;;;;;;;351.17;98.43;;;;;;;6.42;40.12;101059.09;342935;28;2011;-69
2022/03/22 00:24:33;;;;;;;351.20;96.90;;;;;;;6.42;40.27;101061.69;341641;28;2855;-69
2022/03/22 00:24:43;;;;;;;348.83;96.43;;;;;;;6.44;40.24;101067.75;343249;28;1732;-69
2022/03/22 00:24:54;;;;;;;349.17;95.85;;;;;;;6.44;40.05;101063.41;345201;28;1837;-68
2022/03/22 00:25:05;;;;;;;347.57;95.53;;;;;;;6.43;40.48;101064.28;343841;28;924;-68
2022/03/22 00:25:19;;;;;;;347.25;95.70;;;;;;;6.39;40.16;101061.69;343886;28;1544;-68
2022/03/22 00:25:29;;;;;;;346.52;94.90;;;;;;;6.39;40.00;101064.28;342531;28;920;-68
2022/03/22 00:25:39;;;;;;;349.25;95.82;;;;;;;6.41;40.32;101065.16;342421;28;1574;-68
2022/03/22 00:25:50;;;;;;;351.15;96.40;;;;;;;6.40;40.05;101064.28;342520;28;956;-68
2022/03/22 00:26:01;;;;;;;352.93;97.50;;;;;;;6.42;40.25;101061.69;343699;28;1256;-68
2022/03/22 00:26:11;;;;;;;352.42;97.47;;;;;;;6.42;40.46;101067.75;342617;28;1596;-68
2022/03/22 00:26:21;;;;;;;347.27;95.40;;;;;;;6.44;39.99;101068.63;343958;28;822;-68
2022/03/22 00:26:32;;;;;;;348.15;94.78;;;;;;;6.44;40.04;101070.34;342986;28;1820;-68
2022/03/22 00:26:42;;;;;;;347.87;95.97;;;;;;;6.45;39.85;101061.69;342601;28;933;-67
2022/03/22 00:26:52;;;;;;;348.10;97.78;;;;;;;6.45;40.29;101062.56;342532;28;967;-67
2022/03/22 00:27:03;;;;;;;347.07;98.67;;;;;;;6.45;40.17;101061.69;344627;28;919;-68
2022/03/22 00:27:13;;;;;;;347.90;97.43;;;;;;;6.47;40.01;101071.22;342475;28;1219;-68
2022/03/22 00:27:24;;;;;;;348.43;95.80;;;;;;;6.46;40.18;101064.28;343814;28;1188;-69
2022/03/22 00:27:57;;;;;;;349.63;97.20;;;;;;;6.45;40.21;101056.47;343935;28;1855;-69
2022/03/22 00:28:08;;;;;;;350.25;97.35;;;;;;;6.45;39.89;101059.94;345167;28;907;-69
2022/03/22 00:28:19;;;;;;;349.75;97.05;;;;;;;6.47;39.98;101070.34;347339;28;1364;-69
2022/03/22 00:28:30;;;;;;;349.10;97.50;;;;;;;6.48;39.67;101061.69;345252;28;960;-69
2022/03/22 00:28:40;;;;;;;349.27;96.70;;;;;;;6.47;39.46;101059.94;345283;28;857;-68
2022/03/22 00:28:51;;;;;;;349.98;96.93;;;;;;;6.47;39.70;101070.34;345075;28;2251;-69
2022/03/22 00:29:03;;;;;;;350.77;97.17;;;;;;;6.47;39.64;101057.34;344419;28;1736;-69
2022/03/22 00:29:13;;;;;;;349.48;98.95;;;;;;;6.48;39.56;101064.28;340816;29;928;-69
2022/03/22 00:29:24;;;;;;;348.00;98.75;;;;;;;6.47;39.99;101066.00;341237;29;1082;-69
2022/03/22 00:29:34;;;;;;;346.23;96.70;;;;;;;6.48;39.54;101056.47;339888;29;2126;-68
2022/03/22 00:29:44;;;;;;;345.83;94.90;;;;;;;6.49;39.74;101063.41;342167;28;1942;-68
2022/03/22 00:29:55;;;;;;;346.70;95.13;;;;;;;6.50;40.29;101059.94;343588;28;2334;-68
2022/03/22 00:30:06;;;;;;;347.42;93.93;;;;;;;6.50;39.63;101057.34;343712;28;1293;-68
2022/03/22 00:30:19;;;;;;;348.23;93.38;;;;;;;6.49;39.48;101063.41;343817;28;1160;-69
2022/03/22 00:30:31;;;;;;;348.60;95.85;;;;;;;6.52;39.91;101058.19;343702;28;3747;-69
2022/03/22 00:30:41;;;;;;;349.30;97.25;;;;;;;6.51;39.46;101066.84;343728;28;1262;-69
2022/03/22 00:30:52;;;;;;;347.92;97.20;;;;;;;6.50;39.22;101059.94;343938;28;847;-69
2022/03/22 00:31:03;;;;;;;347.00;97.25;;;;;;;6.50;39.47;101062.53;345177;28;1581;-69
2022/03/22 00:31:15;;;;;;;348.90;98.27;;;;;;;6.52;39.66;101068.59;343962;28;1273;-68
2022/03/22 00:31:25;;;;;;;349.33;96.95;;;;;;;6.53;39.47;101059.91;343915;28;944;-68
2022/03/22 00:31:36;;;;;;;349.35;94.72;;;;;;;6.51;39.56;101061.66;345179;28;1823;-68
2022/03/22 00:31:46;;;;;;;348.00;93.73;;;;;;;6.49;39.44;101060.81;343833;28;1754;-68
2022/03/22 00:31:56;;;;;;;346.95;91.80;;;;;;;6.47;39.46;101052.16;345208;28;807;-69
2022/03/22 00:32:08;;;;;;;344.87;91.30;;;;;;;6.47;39.31;101065.16;346460;28;1299;-69
2022/03/22 00:32:18;;;;;;;347.35;93.00;;;;;;;6.47;39.45;101063.41;343790;28;1343;-68
2022/03/22 00:32:30;;;;;;;349.73;96.10;;;;;;;6.48;39.48;101061.69;343738;28;2144;-68
2022/03/22 00:32:40;;;;;;;350.05;96.43;;;;;;;6.47;39.34;101060.81;339910;29;986;-69
2022/03/22 00:32:54;;;;;;;348.63;96.17;;;;;;;6.50;39.45;101065.97;342495;28;904;-68
2022/03/22 00:33:05;;;;;;;347.35;95.35;;;;;;;6.51;39.28;101056.44;342540;28;951;-69
2022/03/22 00:33:16;;;;;;;348.92;94.72;;;;;;;6.52;39.72;101061.66;345203;28;1504;-69
2022/03/22 00:33:26;;;;;;;347.60;93.28;;;;;;;6.53;39.40;101065.13;345244;28;940;-69
2022/03/22 00:33:36;;;;;;;346.23;93.13;;;;;;;6.51;39.40;101059.91;341119;28;1365;-69
2022/03/22 00:33:47;;;;;;;343.88;92.05;;;;;;;6.52;39.59;101060.78;339247;29;2175;-69
2022/03/22 00:33:57;;;;;;;344.30;91.33;;;;;;;6.52;39.78;101063.38;341293;28;1205;-69
2022/03/22 00:34:08;;;;;;;346.63;92.32;;;;;;;6.51;39.75;101056.44;343811;28;1498;-69
2022/03/22 00:34:18;;;;;;;349.13;94.27;;;;;;;6.51;39.71;101056.44;342496;28;1190;-69
2022/03/22 00:34:29;;;;;;;347.20;93.47;;;;;;;6.50;39.77;101055.59;341165;28;1365;-69
2022/03/22 00:34:44;;;;;;;344.60;92.13;;;;;;;6.51;39.69;101064.25;341236;29;944;-68
2022/03/22 00:34:54;;;;;;;343.45;91.80;;;;;;;6.52;39.68;101068.59;339830;29;1485;-68
2022/03/22 00:35:05;;;;;;;344.77;93.40;;;;;;;6.51;39.64;101064.25;339779;29;1930;-69
2022/03/22 00:35:18;;;;;;;346.08;94.10;;;;;;;6.50;39.61;101057.34;342495;28;1309;-68
2022/03/22 00:35:36;;;;;;;345.63;94.07;;;;;;;6.51;39.47;101061.66;342611;28;1186;-68
2022/03/22 00:35:46;;;;;;;348.63;97.07;;;;;;;6.51;39.57;101062.50;343845;28;853;-68
2022/03/22 00:35:57;;;;;;;349.60;96.83;;;;;;;6.53;39.59;101059.91;343662;28;1369;-68
2022/03/22 00:36:07;;;;;;;349.92;94.63;;;;;;;6.54;39.69;101064.25;341289;29;952;-68
2022/03/22 00:36:17;;;;;;;348.13;93.07;;;;;;;6.54;39.52;101059.91;339595;29;1760;-68
2022/03/22 00:36:28;;;;;;;348.48;94.47;;;;;;;6.55;39.68;101063.38;342481;28;2037;-68
2022/03/22 00:36:39;;;;;;;347.73;95.53;;;;;;;6.53;39.52;101059.91;342479;28;1398;-68
2022/03/22 00:36:50;;;;;;;348.50;95.65;;;;;;;6.53;39.57;101059.91;342460;28;2315;-68
2022/03/22 00:37:00;;;;;;;348.47;94.33;;;;;;;6.52;39.71;101064.25;338557;29;1228;-68
2022/03/22 00:37:17;;;;;;;346.70;91.80;;;;;;;6.51;39.59;101057.31;339791;29;1205;-68
2022/03/22 00:37:29;;;;;;;347.02;91.75;;;;;;;6.52;39.64;101058.19;343895;28;925;-69
2022/03/22 00:37:42;;;;;;;347.60;93.22;;;;;;;6.54;39.66;101061.66;342369;28;1353;-68
2022/03/22 00:37:54;;;;;;;348.10;95.70;;;;;;;6.54;39.55;101056.44;342455;28;932;-69
2022/03/22 00:38:08;;;;;;;348.33;93.88;;;;;;;6.55;39.86;101058.19;342571;28;1498;-69
2022/03/22 00:38:20;;;;;;;349.00;95.38;;;;;;;6.55;39.40;101052.97;343420;28;2259;-69
2022/03/22 00:38:30;;;;;;;349.10;96.25;;;;;;;6.55;39.32;101063.38;345556;28;2183;-69
2022/03/22 00:38:41;;;;;;;347.07;94.67;;;;;;;6.54;39.46;101059.03;343856;28;970;-69
2022/03/22 00:38:51;;;;;;;347.23;92.70;;;;;;;6.49;39.44;101055.63;342708;28;1216;-69
2022/03/22 00:39:02;;;;;;;344.40;89.67;;;;;;;6.47;39.69;101054.75;344758;28;1392;-69
2022/03/22 00:39:13;;;;;;;345.15;92.22;;;;;;;6.45;39.63;101057.34;342445;28;901;-69
2022/03/22 00:39:23;;;;;;;347.60;95.30;;;;;;;6.44;40.08;101054.75;342590;28;929;-69
2022/03/22 00:39:33;;;;;;;348.65;97.40;;;;;;;6.42;39.84;101053.88;342500;28;1216;-69
2022/03/22 00:39:45;;;;;;;347.33;94.97;;;;;;;6.41;39.70;101054.75;342176;28;1249;-69
2022/03/22 00:39:55;;;;;;;345.40;94.05;;;;;;;6.39;39.56;101054.75;342394;28;1807;-69
2022/03/22 00:40:12;;;;;;;346.70;93.90;;;;;;;6.37;39.79;101055.63;341194;29;1027;-69
2022/03/22 00:40:24;;;;;;;348.92;96.03;;;;;;;6.36;39.74;101057.34;340861;29;2009;-68
2022/03/22 00:40:35;;;;;;;348.27;95.57;;;;;;;6.39;39.73;101066.88;343846;28;1313;-68
2022/03/22 00:40:45;;;;;;;347.30;94.43;;;;;;;6.39;40.07;101057.34;342560;28;1017;-68
2022/03/22 00:40:56;;;;;;;347.00;93.18;;;;;;;6.39;39.84;101057.34;342512;28;909;-71
2022/03/22 00:41:06;;;;;;;348.70;92.70;;;;;;;6.40;40.22;101053.00;341258;29;1012;-69
2022/03/22 00:41:17;;;;;;;348.23;91.97;;;;;;;6.41;40.37;101055.63;343839;28;1320;-69
2022/03/22 00:41:28;;;;;;;348.17;93.18;;;;;;;6.42;39.78;101056.47;343926;28;1705;-69
2022/03/22 00:41:38;;;;;;;345.40;93.97;;;;;;;6.43;39.93;101053.88;343919;28;940;-69
2022/03/22 00:41:48;;;;;;;346.27;94.35;;;;;;;6.43;39.93;101055.63;343822;28;1282;-69
2022/03/22 00:41:59;;;;;;;344.87;92.90;;;;;;;6.44;40.06;101049.56;343861;28;917;-69
2022/03/22 00:42:10;;;;;;;344.90;92.50;;;;;;;6.45;39.73;101061.69;342480;28;1380;-69
2022/03/22 00:42:21;;;;;;;344.60;91.50;;;;;;;6.45;39.79;101061.69;343861;28;1334;-70
2022/03/22 00:42:32;;;;;;;344.25;90.75;;;;;;;6.46;39.94;101053.88;345092;28;2140;-69
2022/03/22 00:42:46;;;;;;;345.73;91.95;;;;;;;6.47;39.79;101054.75;341094;28;1204;-69
2022/03/22 00:42:56;;;;;;;346.52;92.63;;;;;;;6.45;40.09;101053.88;345152;28;865;-69
2022/03/22 00:43:07;;;;;;;345.83;90.80;;;;;;;6.47;39.90;101054.75;342522;28;1858;-69
2022/03/22 00:43:17;;;;;;;344.35;92.85;;;;;;;6.47;40.00;101055.63;343690;28;2050;-69
2022/03/22 00:43:28;;;;;;;345.57;93.33;;;;;;;6.49;39.95;101060.81;345828;28;985;-69
2022/03/22 00:43:38;;;;;;;346.40;95.43;;;;;;;6.49;39.94;101053.00;345637;28;978;-69
2022/03/22 00:43:48;;;;;;;347.13;94.63;;;;;;;6.50;39.94;101059.94;339988;29;1198;-69
2022/03/22 00:43:59;;;;;;;345.83;95.43;;;;;;;6.51;39.86;101056.44;341111;29;931;-69
2022/03/22 00:44:09;;;;;;;345.90;95.33;;;;;;;6.48;40.16;101056.47;341265;29;827;-69
2022/03/22 00:44:22;;;;;;;344.95;94.45;;;;;;;6.48;39.91;101056.47;343844;28;1128;-69
2022/03/22 00:44:32;;;;;;;346.58;92.82;;;;;;;6.45;39.63;101051.28;343880;28;916;-69
2022/03/22 00:44:43;;;;;;;346.77;91.63;;;;;;;6.45;40.08;101051.28;343790;28;1176;-69
2022/03/22 00:44:55;;;;;;;347.70;93.43;;;;;;;6.45;39.52;101057.34;343906;28;1233;-69
2022/03/22 00:45:06;;;;;;;346.10;94.85;;;;;;;6.47;39.69;101049.53;342402;28;917;-69
2022/03/22 00:45:16;;;;;;;345.48;94.47;;;;;;;6.48;39.73;101056.47;342542;28;991;-69
2022/03/22 00:45:29;;;;;;;345.27;93.67;;;;;;;6.50;39.93;101054.75;341616;28;1454;-69
2022/03/22 00:45:40;;;;;;;344.68;93.14;;;;;;;6.51;39.72;101046.03;342496;28;977;-69
2022/03/22 00:45:50;;;;;;;346.27;95.70;;;;;;;6.51;39.52;101053.84;342437;28;1190;-69
2022/03/22 00:46:02;;;;;;;346.00;95.13;;;;;;;6.51;39.53;101049.50;342536;28;852;-69
2022/03/22 00:46:12;;;;;;;347.02;96.28;;;;;;;6.50;39.42;101055.59;341112;29;905;-69
2022/03/22 00:46:22;;;;;;;346.83;96.57;;;;;;;6.50;39.49;101046.94;339808;29;1913;-69
2022/03/22 00:46:33;;;;;;;345.67;96.97;;;;;;;6.52;39.25;101050.38;343689;28;1625;-69
2022/03/22 00:46:43;;;;;;;345.47;96.43;;;;;;;6.51;39.43;101046.91;343575;28;2332;-69
2022/03/22 00:46:54;;;;;;;344.35;95.50;;;;;;;6.51;39.41;101051.25;343854;28;1042;-69
2022/03/22 00:47:06;;;;;;;344.80;94.47;;;;;;;6.53;39.32;101049.50;339799;29;1589;-69
2022/03/22 00:47:17;;;;;;;343.77;93.53;;;;;;;6.54;39.05;101056.44;342455;28;1304;-69
2022/03/22 00:47:27;;;;;;;344.87;95.17;;;;;;;6.56;39.05;101054.72;343763;28;1189;-67
2022/03/22 00:47:37;;;;;;;343.17;93.35;;;;;;;6.57;39.28;101054.72;342466;28;1392;-67
2022/03/22 00:47:50;;;;;;;341.80;92.23;;;;;;;6.58;39.66;101052.97;342559;28;921;-68
2022/03/22 00:48:02;;;;;;;343.38;92.57;;;;;;;6.58;39.27;101058.19;342337;28;1956;-68
2022/03/22 00:48:13;;;;;;;346.02;95.30;;;;;;;6.58;39.40;101050.38;341860;28;2214;-68
2022/03/22 00:48:23;;;;;;;346.80;95.60;;;;;;;6.57;39.03;101052.09;342452;28;1149;-68
2022/03/22 00:48:33;;;;;;;347.13;94.73;;;;;;;6.58;39.24;101056.44;342497;28;2088;-67
2022/03/22 00:48:47;;;;;;;347.83;95.25;;;;;;;6.59;39.44;101054.72;340872;29;1847;-68
2022/03/22 00:49:01;;;;;;;346.63;95.13;;;;;;;6.59;39.03;101052.09;343713;28;1445;-67
2022/03/22 00:49:11;;;;;;;347.30;95.05;;;;;;;6.60;39.38;101051.25;342920;28;1149;-68
2022/03/22 00:49:21;;;;;;;346.80;95.68;;;;;;;6.59;39.19;101054.72;341218;29;940;-68
2022/03/22 00:49:33;;;;;;;345.37;95.33;;;;;;;6.59;39.09;101044.31;341311;29;941;-68
2022/03/22 00:49:43;;;;;;;345.02;95.34;;;;;;;6.59;39.37;101049.50;342302;28;1948;-68
2022/03/22 00:49:53;;;;;;;344.23;96.00;;;;;;;6.58;39.08;101053.84;342334;28;1279;-68
2022/03/22 00:50:04;;;;;;;345.13;96.60;;;;;;;6.58;39.00;101055.56;346541;28;1076;-68
2022/03/22 00:50:21;;;;;;;347.30;97.25;;;;;;;6.58;39.54;101046.03;346506;28;1081;-68
2022/03/22 00:50:35;;;;;;;346.90;95.65;;;;;;;6.56;39.37;101049.50;345278;28;940;-68
2022/03/22 00:50:47;;;;;;;344.52;92.78;;;;;;;6.54;39.53;101051.25;345214;28;1013;-68
2022/03/22 00:50:57;;;;;;;344.08;92.40;;;;;;;6.52;39.44;101048.63;342608;28;689;-68
2022/03/22 00:51:09;;;;;;;343.75;92.63;;;;;;;6.51;39.29;101051.25;342464;28;900;-68
2022/03/22 00:51:23;;;;;;;344.95;94.60;;;;;;;6.50;39.46;101041.75;339823;29;1450;-68
2022/03/22 00:51:34;;;;;;;346.55;96.05;;;;;;;6.52;39.43;101047.78;339944;29;1035;-68
2022/03/22 00:51:44;;;;;;;346.60;96.83;;;;;;;6.50;39.15;101044.34;341159;29;1125;-68